Time;durP1;ratioP1;P1;durP2;ratioP2;P2;SDS_P1;SDS_P2;PMS_P1;PMS_P2;Temp;Humidity;BMP_temperature;BMP_pressure;BME280_temperature;BME280_humidity;BME280_pressure;Samples;Min_cycle;Max_cycle;Signal;HPM_P1;HPM_P2
2021/07/24 00:00:07;;;;;;;16.93;12.00;;;;;;;18.93;66.41;99512.52;531132;1090;117207;-56
2021/07/24 00:10:12;;;;;;;;;;;;;;;18.96;66.52;99504.21;530355;1089;116712;-56
2021/07/24 00:20:19;;;;;;;15.50;10.93;;;;;;;18.97;66.35;99513.05;531283;1090;102470;-55
2021/07/24 00:30:26;;;;;;;11.93;10.70;;;;;;;18.98;66.47;99510.20;531085;1089;117028;-55
2021/07/24 00:40:37;;;;;;;14.45;11.33;;;;;;;19.00;66.41;99500.30;530304;1090;117399;-56
2021/07/24 00:50:47;;;;;;;14.67;11.07;;;;;;;19.03;66.71;99504.45;531106;1090;118248;-55
2021/07/24 01:00:55;;;;;;;14.07;11.70;;;;;;;18.86;66.76;99506.13;530991;1089;116297;-56
2021/07/24 01:11:02;;;;;;;15.00;11.10;;;;;;;18.81;67.31;99503.92;530432;1089;117745;-56
2021/07/24 01:21:10;;;;;;;13.50;11.10;;;;;;;18.72;67.48;99500.38;531096;1089;116041;-57
2021/07/24 01:31:17;;;;;;;12.53;11.08;;;;;;;18.64;67.92;99500.30;530333;1089;117788;-56
2021/07/24 01:41:24;;;;;;;13.17;10.23;;;;;;;18.71;67.78;99489.91;531109;1090;117487;-57
2021/07/24 02:02:11;;;;;;;15.38;10.63;;;;;;;18.83;67.85;99479.84;530397;1089;116902;-56
2021/07/24 02:12:18;;;;;;;14.73;10.30;;;;;;;18.85;68.24;99475.20;531161;1090;117696;-55
2021/07/24 02:22:25;;;;;;;14.27;11.13;;;;;;;18.80;68.16;99473.00;530330;1089;116179;-56
2021/07/24 02:32:31;;;;;;;16.00;10.60;;;;;;;18.81;68.35;99471.19;531091;1089;116923;-56
2021/07/24 02:42:37;;;;;;;14.20;11.80;;;;;;;18.80;68.20;99462.36;531070;1090;119147;-56
2021/07/24 02:52:44;;;;;;;15.43;11.90;;;;;;;18.63;68.44;99459.59;530357;1089;117507;-56
2021/07/24 03:02:50;;;;;;;15.90;12.43;;;;;;;18.55;68.33;99466.67;531114;1088;117726;-57
2021/07/24 03:12:57;;;;;;;19.43;11.70;;;;;;;18.66;67.83;99462.92;531110;1090;116675;-56
2021/07/24 03:23:03;;;;;;;17.13;12.67;;;;;;;18.80;67.10;99462.36;530361;1088;117543;-56
2021/07/24 03:33:11;;;;;;;16.55;12.00;;;;;;;18.86;68.07;99464.41;531154;1089;116314;-58
2021/07/24 03:43:18;;;;;;;21.63;11.53;;;;;;;19.03;67.91;99465.39;530332;1089;118111;-56
2021/07/24 03:53:24;;;;;;;12.47;10.57;;;;;;;19.15;67.73;99473.93;531112;1090;116651;-56
2021/07/24 04:03:30;;;;;;;14.20;10.30;;;;;;;19.20;67.35;99470.80;531117;1089;116601;-56
2021/07/24 04:13:37;;;;;;;17.13;13.33;;;;;;;19.37;66.26;99477.05;530433;1090;117966;-57
2021/07/24 04:23:44;;;;;;;16.63;12.10;;;;;;;19.68;66.26;99470.36;531072;1089;116867;-56
2021/07/24 04:33:51;;;;;;;18.93;13.33;;;;;;;20.01;65.57;99487.33;531039;1089;117631;-56
2021/07/24 04:43:57;;;;;;;14.63;10.80;;;;;;;20.51;64.48;99483.92;530333;1089;116646;-57
2021/07/24 04:54:05;;;;;;;13.43;11.93;;;;;;;21.17;62.31;99480.39;531063;1089;116826;-56
2021/07/24 05:04:12;;;;;;;13.07;10.67;;;;;;;22.26;60.24;99482.45;531126;1088;117247;-56
2021/07/24 05:14:18;;;;;;;16.10;11.47;;;;;;;23.55;59.05;99485.33;531040;1090;116943;-57
2021/07/24 05:24:25;;;;;;;11.40;10.20;;;;;;;31.05;50.15;99487.14;531137;1089;116888;-58
2021/07/24 05:34:31;;;;;;;11.30;10.20;;;;;;;34.31;43.85;99474.41;530229;1089;117279;-56
2021/07/24 05:44:36;;;;;;;;;;;;;;;33.31;40.41;99470.84;531092;1090;116068;-58
2021/07/24 05:54:42;;;;;;;10.05;8.95;;;;;;;35.02;38.91;99469.73;531324;1089;102509;-57
2021/07/24 06:04:50;;;;;;;10.45;8.10;;;;;;;33.21;37.38;99466.08;530315;1089;116887;-56
2021/07/24 06:14:56;;;;;;;9.97;8.73;;;;;;;32.39;37.33;99474.63;531029;1089;116494;-58
2021/07/24 06:25:03;;;;;;;8.93;8.00;;;;;;;31.65;37.41;99473.50;531122;1089;118688;-57
2021/07/24 06:35:11;;;;;;;10.67;9.50;;;;;;;31.45;38.23;99470.15;530349;1088;116657;-59
2021/07/24 06:45:17;;;;;;;8.90;8.00;;;;;;;33.11;36.22;99477.66;531035;1089;117410;-59
2021/07/24 06:55:23;;;;;;;8.45;7.65;;;;;;;33.28;35.55;99491.20;530304;1089;116832;-60
2021/07/24 07:05:31;;;;;;;9.53;6.88;;;;;;;38.95;32.04;99486.48;531087;1089;116868;-58
2021/07/24 07:15:38;;;;;;;8.60;7.80;;;;;;;39.83;28.16;99482.66;531061;1089;116788;-59
2021/07/24 07:25:44;;;;;;;8.43;7.68;;;;;;;35.96;29.97;99487.34;530415;1088;116678;-61
2021/07/24 07:35:50;;;;;;;9.40;8.33;;;;;;;34.60;30.92;99491.30;531228;1090;115663;-59
2021/07/24 07:45:57;;;;;;;9.98;8.50;;;;;;;33.89;31.16;99500.41;531242;1089;116007;-59
2021/07/24 07:56:06;;;;;;;9.33;7.48;;;;;;;33.47;31.58;99501.80;530461;1089;116149;-59
2021/07/24 08:06:12;;;;;;;10.70;7.28;;;;;;;34.00;31.33;99504.91;531203;1089;116519;-59
2021/07/24 08:16:19;;;;;;;11.13;10.07;;;;;;;34.95;30.13;99486.34;530483;1089;116520;-58
2021/07/24 08:26:25;;;;;;;8.67;7.77;;;;;;;35.52;29.96;99492.10;531183;1089;118033;-59
2021/07/24 08:36:31;;;;;;;8.33;7.48;;;;;;;34.97;29.39;99497.80;531149;1089;116148;-59
2021/07/24 08:46:38;;;;;;;8.38;7.58;;;;;;;34.71;29.88;99491.38;530513;1089;117124;-59
2021/07/24 08:56:50;;;;;;;8.50;7.70;;;;;;;34.89;29.69;99487.41;531269;1089;116167;-59
2021/07/24 09:07:03;;;;;;;7.90;7.07;;;;;;;34.44;29.17;99476.70;531224;1090;116180;-59
2021/07/24 09:17:12;;;;;;;8.15;7.35;;;;;;;33.97;29.06;99459.08;530489;1090;117456;-59
2021/07/24 09:27:26;;;;;;;9.57;7.10;;;;;;;33.39;29.36;99456.78;531204;1089;116440;-60
2021/07/24 09:37:33;;;;;;;6.73;6.20;;;;;;;33.36;29.38;99440.97;530519;1089;117309;-58
2021/07/24 09:47:39;;;;;;;6.93;6.33;;;;;;;33.20;28.77;99450.84;531185;1089;115702;-59
2021/07/24 09:57:46;;;;;;;9.73;6.63;;;;;;;32.20;29.17;99458.52;531201;1089;117018;-59
2021/07/24 10:07:53;;;;;;;7.30;6.60;;;;;;;31.21;30.38;99428.66;531926;1089;172861;-59
2021/07/24 10:18:00;;;;;;;8.20;7.07;;;;;;;30.71;30.79;99419.19;532629;1089;117278;-60
2021/07/24 10:28:08;;;;;;;8.15;6.50;;;;;;;30.75;31.06;99423.88;532587;1089;116559;-59
2021/07/24 10:38:33;;;;;;;7.53;6.93;;;;;;;30.24;30.96;99426.16;532436;1089;116351;-58
2021/07/24 10:48:45;;;;;;;9.10;6.87;;;;;;;30.26;31.53;99415.11;532579;1090;116062;-59
2021/07/24 10:59:19;;;;;;;7.30;6.50;;;;;;;29.95;31.45;99412.42;531888;1089;116998;-60
2021/07/24 11:09:31;;;;;;;9.47;6.93;;;;;;;29.59;32.07;99420.39;531926;1089;117728;-59
2021/07/24 11:19:39;;;;;;;7.77;6.97;;;;;;;29.47;32.22;99409.53;531858;1089;116538;-59
2021/07/24 11:29:46;;;;;;;7.90;7.20;;;;;;;29.19;32.99;99410.87;532618;1089;116634;-57
2021/07/24 11:39:55;;;;;;;7.95;6.95;;;;;;;29.46;33.81;99410.59;532605;1089;116543;-58
2021/07/24 11:50:18;;;;;;;9.70;7.63;;;;;;;29.12;34.10;99410.14;531821;1089;116776;-60
2021/07/24 12:00:34;;;;;;;11.33;8.20;;;;;;;29.25;34.16;99403.73;532569;1089;115633;-59
2021/07/24 12:10:44;;;;;;;15.58;8.75;;;;;;;29.01;34.29;99418.99;531792;1089;116838;-59
2021/07/24 12:20:51;;;;;;;8.83;6.83;;;;;;;28.69;33.90;99405.56;532602;1087;116600;-59
2021/07/24 12:31:15;;;;;;;7.18;6.55;;;;;;;28.75;33.20;99404.69;532609;1089;118074;-60
2021/07/24 12:41:32;;;;;;;7.70;6.93;;;;;;;28.60;33.09;99399.63;532599;1090;117675;-59
2021/07/24 12:51:38;;;;;;;;;;;;;;;28.82;32.35;99397.34;532648;1089;116235;-59
2021/07/24 13:01:51;;;;;;;7.33;6.60;;;;;;;28.69;32.11;99390.19;532144;1089;102394;-59
2021/07/24 13:11:58;;;;;;;7.73;7.03;;;;;;;29.05;32.89;99379.64;532575;1089;117406;-59
2021/07/24 13:22:05;;;;;;;7.88;7.18;;;;;;;29.12;32.82;99384.97;532583;1089;116529;-59
2021/07/24 13:32:12;;;;;;;8.05;7.30;;;;;;;29.05;32.88;99376.94;531909;1088;116195;-59
2021/07/24 13:42:18;;;;;;;8.37;6.77;;;;;;;29.40;32.71;99362.78;532661;1089;116399;-59
2021/07/24 13:52:25;;;;;;;7.75;6.33;;;;;;;28.97;32.36;99372.67;531819;1088;117126;-59
2021/07/24 14:02:33;;;;;;;8.83;6.83;;;;;;;28.67;32.58;99371.50;532626;1089;117761;-59
2021/07/24 14:12:39;;;;;;;8.73;7.93;;;;;;;28.33;33.12;99365.59;532646;1089;116565;-60
2021/07/24 14:22:56;;;;;;;8.07;7.37;;;;;;;27.90;33.90;99371.69;531864;1089;118528;-59
2021/07/24 14:33:02;;;;;;;7.90;7.10;;;;;;;27.39;33.85;99368.85;532592;1089;116967;-59
2021/07/24 14:43:08;;;;;;;8.70;7.23;;;;;;;26.99;34.62;99376.03;532574;1089;117487;-60
2021/07/24 14:53:15;;;;;;;8.27;7.47;;;;;;;27.13;34.40;99373.31;532513;1088;116898;-59
2021/07/24 15:03:23;;;;;;;8.10;7.30;;;;;;;27.18;35.24;99375.34;532654;1089;116700;-59
2021/07/24 15:13:30;;;;;;;9.17;7.20;;;;;;;27.35;35.41;99371.14;531827;1088;116861;-59
2021/07/24 15:23:37;;;;;;;10.03;6.83;;;;;;;27.48;35.64;99364.03;532604;1089;117064;-59
2021/07/24 15:33:43;;;;;;;7.90;7.20;;;;;;;27.69;35.63;99358.34;532625;1089;116538;-59
2021/07/24 15:43:49;;;;;;;9.70;7.90;;;;;;;27.62;35.62;99341.36;531868;1088;116600;-59
2021/07/24 15:53:56;;;;;;;8.13;7.33;;;;;;;27.21;35.58;99345.30;532612;1089;116414;-59
2021/07/24 16:04:03;;;;;;;7.30;6.60;;;;;;;27.21;35.73;99323.73;532619;1089;115693;-59
2021/07/24 16:14:10;;;;;;;9.30;6.60;;;;;;;26.96;36.09;99319.08;531875;1088;117161;-59
2021/07/24 16:24:17;;;;;;;7.85;7.15;;;;;;;26.50;36.56;99310.05;532632;1088;116810;-59
2021/07/24 16:34:23;;;;;;;9.57;7.90;;;;;;;26.02;37.59;99307.36;531834;1089;117819;-59
2021/07/24 16:44:30;;;;;;;8.63;6.80;;;;;;;25.81;38.38;99296.82;532588;1089;117326;-59
2021/07/24 16:54:38;;;;;;;8.00;6.70;;;;;;;25.54;38.35;99304.83;532650;1089;116653;-59
2021/07/24 17:04:45;;;;;;;7.87;7.10;;;;;;;25.30;38.88;99294.42;531837;1089;117259;-59
2021/07/24 17:14:52;;;;;;;7.40;6.77;;;;;;;25.70;39.43;99291.02;532649;1088;116363;-59
2021/07/24 17:24:58;;;;;;;7.88;7.08;;;;;;;25.70;39.01;99287.48;532606;1089;116080;-58
2021/07/24 17:35:05;;;;;;;7.77;6.97;;;;;;;25.21;39.75;99282.20;531793;1089;116282;-59
2021/07/24 17:45:13;;;;;;;8.10;6.37;;;;;;;24.81;40.25;99269.45;532667;1089;116719;-59
2021/07/24 17:55:23;;;;;;;8.00;7.30;;;;;;;24.43;41.26;99281.39;531837;1088;116678;-58
2021/07/24 18:05:29;;;;;;;9.27;7.33;;;;;;;24.21;41.68;99288.69;532611;1090;117022;-59
2021/07/24 18:15:40;;;;;;;10.00;8.87;;;;;;;24.02;42.16;99299.02;532439;1090;116825;-59
2021/07/24 18:25:46;;;;;;;11.37;8.93;;;;;;;23.65;42.72;99306.32;531184;1088;117422;-59
2021/07/24 18:35:53;;;;;;;8.47;7.50;;;;;;;23.41;43.51;99316.38;532121;1089;174283;-59
2021/07/24 18:45:59;;;;;;;9.27;8.30;;;;;;;23.26;43.73;99323.58;531121;1089;116385;-58
2021/07/24 18:56:07;;;;;;;8.90;8.00;;;;;;;23.11;44.23;99310.23;530369;1090;118473;-58
2021/07/24 19:06:13;;;;;;;9.28;7.85;;;;;;;22.90;44.94;99317.99;532108;1089;117074;-58
2021/07/24 19:16:24;;;;;;;9.10;7.93;;;;;;;22.69;45.18;99317.94;531436;1088;116835;-58
2021/07/24 19:26:31;;;;;;;9.23;8.33;;;;;;;22.39;45.72;99316.00;532548;1089;116645;-58
2021/07/24 19:36:39;;;;;;;10.13;9.05;;;;;;;22.07;46.27;99305.44;532642;1089;116699;-58
2021/07/24 19:46:46;;;;;;;13.73;11.10;;;;;;;21.82;46.64;99312.84;531831;1089;116594;-58
2021/07/24 19:56:53;;;;;;;10.88;8.60;;;;;;;21.63;47.43;99304.26;531151;1090;117214;-58
2021/07/24 20:06:59;;;;;;;12.07;8.60;;;;;;;21.49;47.92;99311.19;532564;1088;117321;-58
2021/07/24 20:17:06;;;;;;;10.30;9.00;;;;;;;21.42;48.46;99310.24;531830;1089;117081;-58
2021/07/24 20:27:13;;;;;;;11.77;9.70;;;;;;;21.38;48.62;99301.75;532649;1089;117826;-58
2021/07/24 20:37:20;;;;;;;11.28;9.93;;;;;;;21.29;48.88;99292.12;528773;1089;116796;-59
2021/07/24 20:47:26;;;;;;;11.40;9.60;;;;;;;21.06;49.93;99300.91;527608;1088;117038;-57
2021/07/24 20:57:34;;;;;;;13.33;9.77;;;;;;;20.83;50.53;99301.67;532583;1089;116802;-58
2021/07/24 21:07:40;;;;;;;16.93;11.53;;;;;;;20.70;51.07;99312.84;531844;1089;117197;-57
2021/07/24 21:17:47;;;;;;;11.47;10.27;;;;;;;20.60;51.31;99316.72;531940;1089;117135;-57
2021/07/24 21:27:53;;;;;;;15.50;10.53;;;;;;;20.59;51.69;99318.53;532635;1089;117604;-58
2021/07/24 21:38:00;;;;;;;14.00;11.60;;;;;;;20.72;52.03;99315.34;531105;1088;117781;-58
2021/07/24 21:48:15;;;;;;;11.73;10.53;;;;;;;20.80;51.77;99306.48;532568;1089;116779;-58
2021/07/24 21:58:22;;;;;;;11.40;10.20;;;;;;;20.84;51.94;99310.52;531050;1089;118193;-57
2021/07/24 22:08:30;;;;;;;12.33;11.03;;;;;;;20.90;51.91;99306.33;532604;1089;118525;-58
2021/07/24 22:18:38;;;;;;;11.15;10.10;;;;;;;20.82;51.90;99297.34;531955;1089;116334;-58
2021/07/24 22:28:45;;;;;;;14.98;11.33;;;;;;;20.67;51.84;99296.37;531849;1088;117460;-58
2021/07/24 22:38:51;;;;;;;12.20;11.07;;;;;;;20.63;52.45;99295.03;531965;1090;117994;-59
2021/07/24 22:48:57;;;;;;;13.53;12.13;;;;;;;20.61;53.00;99287.22;532545;1090;117545;-59
2021/07/24 22:59:04;;;;;;;13.77;12.07;;;;;;;20.48;53.40;99292.23;531834;1089;118467;-58
2021/07/24 23:09:10;;;;;;;14.13;12.63;;;;;;;20.27;53.79;99288.29;531765;1088;116842;-58
2021/07/24 23:19:17;;;;;;;15.57;14.07;;;;;;;20.04;54.52;99282.80;531874;1089;117835;-57
2021/07/24 23:29:23;;;;;;;15.00;13.50;;;;;;;19.86;55.00;99281.13;532622;1090;116753;-59
2021/07/24 23:39:30;;;;;;;14.07;12.60;;;;;;;19.69;55.35;99294.42;532561;1089;117428;-58
2021/07/24 23:49:36;;;;;;;18.20;12.87;;;;;;;19.54;55.73;99288.09;531245;1089;120040;-58
2021/07/24 23:59:42;;;;;;;14.60;12.73;;;;;;;19.37;56.19;99274.73;531989;1089;117160;-58
